< Cyclone 199210 1994 Season Cyclone 199402 >
Cyclone 199401 (NAOMI)
General InformationDetailed Track InformationTrack Information on Google MapsList of All Images || ResourceGoogle EarthGE AnimationAtom FeedGeoJSON
Detalied Best Track Wind (Time Zone = UTC)
Year Month Day Hour Lat. Long. Wind (kt) Gust (kt) Direc. of Major Storm Axis Radius of Major Storm Axis (nm) Radius of Minor Storm Axis (nm) Direc. of Major Gale Axis Radius of Major Gale Axis (nm) Radius of Minor Gale Axis (nm) Image
1993 12 15 00 -12.0 120.7 19 -1 symmetric - - symmetric - - Image
1993 12 15 03 -12.2 120.9 21 -1 symmetric - - symmetric - - Image
1993 12 15 06 -12.4 121.2 23 -1 symmetric - - symmetric - - Image
1993 12 15 09 -12.6 121.5 23 -1 symmetric - - symmetric - - Image
1993 12 15 12 -13.1 121.7 27 -1 symmetric - - symmetric - - Image
1993 12 15 15 -13.6 121.8 29 -1 symmetric - - symmetric - - Image
1993 12 15 18 -14.2 122.0 29 -1 symmetric - - symmetric - - Image
1993 12 15 21 -14.8 122.0 29 -1 symmetric - - symmetric - - Image
1993 12 16 00 -15.3 121.9 35 -1 symmetric - - symmetric - - Image
1993 12 16 03 -15.8 121.8 35 -1 symmetric - - symmetric - - Image
1993 12 16 06 -16.2 121.5 41 -1 symmetric - - symmetric - - Image
1993 12 16 09 -16.6 121.4 47 -1 symmetric - - symmetric - - Image
1993 12 16 12 -16.9 121.3 54 -1 symmetric - - symmetric - - Image
1993 12 16 15 -17.3 121.2 60 -1 symmetric - - symmetric - - Image
1993 12 16 18 -17.6 121.2 66 -1 symmetric - - symmetric - - Image
1993 12 16 21 -17.8 121.3 70 -1 symmetric - - symmetric - - Image
1993 12 17 00 -18.3 121.5 76 -1 symmetric - - symmetric - - Image
1993 12 17 03 -18.8 121.6 76 -1 symmetric - - symmetric - - Image
1993 12 17 06 -19.4 121.6 70 -1 symmetric - - symmetric - - Image
1993 12 17 09 -19.8 121.6 60 -1 symmetric - - symmetric - - Image
1993 12 17 12 -20.3 121.8 54 -1 symmetric - - symmetric - - Image
1993 12 17 15 -20.7 122.0 54 -1 symmetric - - symmetric - - Image
1993 12 17 18 -21.2 122.2 47 -1 symmetric - - symmetric - - Image
1993 12 17 21 -21.6 122.2 47 -1 symmetric - - symmetric - - Image
1993 12 18 00 -22.2 122.2 41 -1 symmetric - - symmetric - - Image
1993 12 18 03 -22.8 122.2 35 -1 symmetric - - symmetric - - Image
1993 12 18 06 -23.4 122.2 35 -1 symmetric - - symmetric - - Image
1993 12 18 09 -24.0 122.2 27 -1 symmetric - - symmetric - - Image
< Cyclone 199210 1994 Season Cyclone 199402 >

Help